sensor_id;sensor_type;location;lat;lon;timestamp;temperature;humidity
2907;DHT22;1463;51.070;16.998;2022-09-03T00:01:52;16.70;99.90
2907;DHT22;1463;51.070;16.998;2022-09-03T00:04:24;16.60;99.90
2907;DHT22;1463;51.070;16.998;2022-09-03T00:06:54;16.60;99.90
2907;DHT22;1463;51.070;16.998;2022-09-03T00:09:24;16.60;99.90
2907;DHT22;1463;51.070;16.998;2022-09-03T00:11:57;16.50;99.90
2907;DHT22;1463;51.070;16.998;2022-09-03T00:14:27;16.50;99.90
2907;DHT22;1463;51.070;16.998;2022-09-03T00:16:59;16.50;99.90
2907;DHT22;1463;51.070;16.998;2022-09-03T00:19:30;16.50;99.90
2907;DHT22;1463;51.070;16.998;2022-09-03T00:21:58;16.50;99.90
2907;DHT22;1463;51.070;16.998;2022-09-03T00:24:28;16.40;99.90
2907;DHT22;1463;51.070;16.998;2022-09-03T00:27:02;16.40;99.90
2907;DHT22;1463;51.070;16.998;2022-09-03T00:29:32;16.40;99.90
2907;DHT22;1463;51.070;16.998;2022-09-03T00:32:01;16.30;99.90
2907;DHT22;1463;51.070;16.998;2022-09-03T00:34:33;16.30;99.90
2907;DHT22;1463;51.070;16.998;2022-09-03T00:37:03;16.20;99.90
2907;DHT22;1463;51.070;16.998;2022-09-03T00:39:30;16.20;99.90
2907;DHT22;1463;51.070;16.998;2022-09-03T00:42:02;16.20;99.90
2907;DHT22;1463;51.070;16.998;2022-09-03T00:44:39;16.10;99.90
2907;DHT22;1463;51.070;16.998;2022-09-03T00:47:10;16.10;99.90
2907;DHT22;1463;51.070;16.998;2022-09-03T00:49:41;16.10;99.90
2907;DHT22;1463;51.070;16.998;2022-09-03T00:52:13;16.10;99.90
2907;DHT22;1463;51.070;16.998;2022-09-03T00:54:45;16.10;99.90
2907;DHT22;1463;51.070;16.998;2022-09-03T00:57:21;16.00;99.90
2907;DHT22;1463;51.070;16.998;2022-09-03T00:59:52;16.00;99.90
2907;DHT22;1463;51.070;16.998;2022-09-03T01:02:24;16.00;99.90
2907;DHT22;1463;51.070;16.998;2022-09-03T01:04:56;16.00;99.90
2907;DHT22;1463;51.070;16.998;2022-09-03T01:07:28;15.90;99.90
2907;DHT22;1463;51.070;16.998;2022-09-03T01:10:01;15.90;99.90
2907;DHT22;1463;51.070;16.998;2022-09-03T01:12:35;15.90;99.90
2907;DHT22;1463;51.070;16.998;2022-09-03T01:15:07;15.80;99.90
2907;DHT22;1463;51.070;16.998;2022-09-03T01:20:28;15.70;99.90
2907;DHT22;1463;51.070;16.998;2022-09-03T01:23:09;15.70;99.90
2907;DHT22;1463;51.070;16.998;2022-09-03T01:25:45;15.70;99.90
2907;DHT22;1463;51.070;16.998;2022-09-03T01:28:24;15.70;99.90
2907;DHT22;1463;51.070;16.998;2022-09-03T01:30:57;15.70;99.90
2907;DHT22;1463;51.070;16.998;2022-09-03T01:33:28;15.70;99.90
2907;DHT22;1463;51.070;16.998;2022-09-03T01:35:58;15.70;99.90
2907;DHT22;1463;51.070;16.998;2022-09-03T01:38:30;15.60;99.90
2907;DHT22;1463;51.070;16.998;2022-09-03T01:41:02;15.60;99.90
2907;DHT22;1463;51.070;16.998;2022-09-03T01:43:49;15.50;99.90
2907;DHT22;1463;51.070;16.998;2022-09-03T01:46:23;15.40;99.90
2907;DHT22;1463;51.070;16.998;2022-09-03T01:48:52;15.40;99.90
2907;DHT22;1463;51.070;16.998;2022-09-03T01:51:24;15.40;99.90
2907;DHT22;1463;51.070;16.998;2022-09-03T01:54:07;15.40;99.90
2907;DHT22;1463;51.070;16.998;2022-09-03T01:56:37;15.30;99.90
2907;DHT22;1463;51.070;16.998;2022-09-03T01:59:12;15.30;99.90
2907;DHT22;1463;51.070;16.998;2022-09-03T02:01:46;15.30;99.90
2907;DHT22;1463;51.070;16.998;2022-09-03T02:04:16;15.20;99.90
2907;DHT22;1463;51.070;16.998;2022-09-03T02:06:45;15.20;99.90
2907;DHT22;1463;51.070;16.998;2022-09-03T02:09:13;15.20;99.90
2907;DHT22;1463;51.070;16.998;2022-09-03T02:11:40;15.20;99.90
2907;DHT22;1463;51.070;16.998;2022-09-03T02:14:08;15.10;99.90
2907;DHT22;1463;51.070;16.998;2022-09-03T02:16:36;15.10;99.90
2907;DHT22;1463;51.070;16.998;2022-09-03T02:19:04;15.10;99.90
2907;DHT22;1463;51.070;16.998;2022-09-03T02:21:35;15.10;99.90
2907;DHT22;1463;51.070;16.998;2022-09-03T02:24:04;15.00;99.90
2907;DHT22;1463;51.070;16.998;2022-09-03T02:26:31;15.00;99.90
2907;DHT22;1463;51.070;16.998;2022-09-03T02:28:59;15.00;99.90
2907;DHT22;1463;51.070;16.998;2022-09-03T02:31:27;15.00;99.90
2907;DHT22;1463;51.070;16.998;2022-09-03T02:33:56;14.90;99.90
2907;DHT22;1463;51.070;16.998;2022-09-03T02:36:24;14.90;99.90
2907;DHT22;1463;51.070;16.998;2022-09-03T02:38:51;14.80;99.90
2907;DHT22;1463;51.070;16.998;2022-09-03T02:41:18;14.80;99.90
2907;DHT22;1463;51.070;16.998;2022-09-03T02:43:46;14.70;99.90
2907;DHT22;1463;51.070;16.998;2022-09-03T02:46:16;14.80;99.90
2907;DHT22;1463;51.070;16.998;2022-09-03T02:48:43;14.80;99.90
2907;DHT22;1463;51.070;16.998;2022-09-03T02:51:12;14.80;99.90
2907;DHT22;1463;51.070;16.998;2022-09-03T02:53:39;14.70;99.90
2907;DHT22;1463;51.070;16.998;2022-09-03T02:56:07;14.70;99.90
2907;DHT22;1463;51.070;16.998;2022-09-03T02:58:34;14.60;99.90
2907;DHT22;1463;51.070;16.998;2022-09-03T03:01:01;14.70;99.90
2907;DHT22;1463;51.070;16.998;2022-09-03T03:03:28;14.60;99.90
2907;DHT22;1463;51.070;16.998;2022-09-03T03:05:56;14.50;99.90
2907;DHT22;1463;51.070;16.998;2022-09-03T03:08:26;14.50;99.90
2907;DHT22;1463;51.070;16.998;2022-09-03T03:10:54;14.50;99.90
2907;DHT22;1463;51.070;16.998;2022-09-03T03:13:23;14.50;99.90
2907;DHT22;1463;51.070;16.998;2022-09-03T03:15:50;14.50;99.90
2907;DHT22;1463;51.070;16.998;2022-09-03T03:18:17;14.50;99.90
2907;DHT22;1463;51.070;16.998;2022-09-03T03:20:45;14.50;99.90
2907;DHT22;1463;51.070;16.998;2022-09-03T03:23:12;14.50;99.90
2907;DHT22;1463;51.070;16.998;2022-09-03T03:25:41;14.50;99.90
2907;DHT22;1463;51.070;16.998;2022-09-03T03:28:08;14.40;99.90
2907;DHT22;1463;51.070;16.998;2022-09-03T03:30:36;14.40;99.90
2907;DHT22;1463;51.070;16.998;2022-09-03T03:33:04;14.40;99.90
2907;DHT22;1463;51.070;16.998;2022-09-03T03:35:31;14.40;99.90
2907;DHT22;1463;51.070;16.998;2022-09-03T03:37:59;14.40;99.90
2907;DHT22;1463;51.070;16.998;2022-09-03T03:40:26;14.30;99.90
2907;DHT22;1463;51.070;16.998;2022-09-03T03:42:56;14.30;99.90
2907;DHT22;1463;51.070;16.998;2022-09-03T03:45:23;14.20;99.90
2907;DHT22;1463;51.070;16.998;2022-09-03T03:47:50;14.20;99.90
2907;DHT22;1463;51.070;16.998;2022-09-03T03:50:17;14.20;99.90
2907;DHT22;1463;51.070;16.998;2022-09-03T03:52:45;14.10;99.90
2907;DHT22;1463;51.070;16.998;2022-09-03T03:55:13;14.20;99.90
2907;DHT22;1463;51.070;16.998;2022-09-03T03:57:40;14.10;99.90
2907;DHT22;1463;51.070;16.998;2022-09-03T04:00:09;14.20;99.90
2907;DHT22;1463;51.070;16.998;2022-09-03T04:02:36;14.20;99.90
2907;DHT22;1463;51.070;16.998;2022-09-03T04:05:04;14.20;99.90
2907;DHT22;1463;51.070;16.998;2022-09-03T04:07:31;14.10;99.90
2907;DHT22;1463;51.070;16.998;2022-09-03T04:09:58;14.10;99.90
2907;DHT22;1463;51.070;16.998;2022-09-03T04:12:25;14.10;99.90
2907;DHT22;1463;51.070;16.998;2022-09-03T04:14:53;14.00;99.90
2907;DHT22;1463;51.070;16.998;2022-09-03T04:17:21;14.10;99.90
2907;DHT22;1463;51.070;16.998;2022-09-03T04:19:48;14.00;99.90
2907;DHT22;1463;51.070;16.998;2022-09-03T04:22:15;14.00;99.90
2907;DHT22;1463;51.070;16.998;2022-09-03T04:24:43;14.00;99.90
2907;DHT22;1463;51.070;16.998;2022-09-03T04:27:10;14.00;99.90
2907;DHT22;1463;51.070;16.998;2022-09-03T04:29:37;14.00;99.90
2907;DHT22;1463;51.070;16.998;2022-09-03T04:32:04;14.00;99.90
2907;DHT22;1463;51.070;16.998;2022-09-03T04:34:50;14.00;99.90
2907;DHT22;1463;51.070;16.998;2022-09-03T04:37:17;14.00;99.90
2907;DHT22;1463;51.070;16.998;2022-09-03T04:39:45;14.00;99.90
2907;DHT22;1463;51.070;16.998;2022-09-03T04:42:12;14.00;99.90
2907;DHT22;1463;51.070;16.998;2022-09-03T04:44:39;14.00;99.90
2907;DHT22;1463;51.070;16.998;2022-09-03T04:47:06;14.00;99.90
2907;DHT22;1463;51.070;16.998;2022-09-03T04:49:33;14.00;99.90
2907;DHT22;1463;51.070;16.998;2022-09-03T04:52:02;14.00;99.90
2907;DHT22;1463;51.070;16.998;2022-09-03T04:54:29;14.00;99.90
2907;DHT22;1463;51.070;16.998;2022-09-03T04:56:56;14.00;99.90
2907;DHT22;1463;51.070;16.998;2022-09-03T04:59:24;14.00;99.90
2907;DHT22;1463;51.070;16.998;2022-09-03T05:01:51;14.10;99.90
2907;DHT22;1463;51.070;16.998;2022-09-03T05:04:18;14.10;99.90
2907;DHT22;1463;51.070;16.998;2022-09-03T05:06:45;14.10;99.90
2907;DHT22;1463;51.070;16.998;2022-09-03T05:09:13;14.30;99.90
2907;DHT22;1463;51.070;16.998;2022-09-03T05:11:41;14.30;99.90
2907;DHT22;1463;51.070;16.998;2022-09-03T05:14:08;14.30;99.90
2907;DHT22;1463;51.070;16.998;2022-09-03T05:16:37;14.50;99.90
2907;DHT22;1463;51.070;16.998;2022-09-03T05:19:04;14.50;99.90
2907;DHT22;1463;51.070;16.998;2022-09-03T05:21:32;14.50;99.90
2907;DHT22;1463;51.070;16.998;2022-09-03T05:24:00;14.40;99.90
2907;DHT22;1463;51.070;16.998;2022-09-03T05:26:30;14.30;99.90
2907;DHT22;1463;51.070;16.998;2022-09-03T05:28:58;14.30;99.90
2907;DHT22;1463;51.070;16.998;2022-09-03T05:31:26;14.30;99.90
2907;DHT22;1463;51.070;16.998;2022-09-03T05:33:54;14.20;99.90
2907;DHT22;1463;51.070;16.998;2022-09-03T05:36:23;14.10;99.90
2907;DHT22;1463;51.070;16.998;2022-09-03T05:38:50;14.20;99.90
2907;DHT22;1463;51.070;16.998;2022-09-03T05:41:19;14.20;99.90
2907;DHT22;1463;51.070;16.998;2022-09-03T05:43:48;14.20;99.90
2907;DHT22;1463;51.070;16.998;2022-09-03T05:46:20;14.30;99.90
2907;DHT22;1463;51.070;16.998;2022-09-03T05:48:52;14.30;99.90
2907;DHT22;1463;51.070;16.998;2022-09-03T05:51:19;14.30;99.90
2907;DHT22;1463;51.070;16.998;2022-09-03T05:53:47;14.30;99.90
2907;DHT22;1463;51.070;16.998;2022-09-03T05:56:15;14.40;99.90
2907;DHT22;1463;51.070;16.998;2022-09-03T05:58:44;14.50;99.90
2907;DHT22;1463;51.070;16.998;2022-09-03T06:01:13;14.60;99.90
2907;DHT22;1463;51.070;16.998;2022-09-03T06:03:40;14.70;99.90
2907;DHT22;1463;51.070;16.998;2022-09-03T06:06:08;14.70;99.90
2907;DHT22;1463;51.070;16.998;2022-09-03T06:08:35;14.80;99.90
2907;DHT22;1463;51.070;16.998;2022-09-03T06:11:03;14.80;99.90
2907;DHT22;1463;51.070;16.998;2022-09-03T06:13:31;14.90;99.90
2907;DHT22;1463;51.070;16.998;2022-09-03T06:15:58;14.70;99.90
2907;DHT22;1463;51.070;16.998;2022-09-03T06:18:27;14.80;99.90
2907;DHT22;1463;51.070;16.998;2022-09-03T06:20:55;14.90;99.90
2907;DHT22;1463;51.070;16.998;2022-09-03T06:23:22;14.90;99.90
2907;DHT22;1463;51.070;16.998;2022-09-03T06:25:58;14.90;99.90
2907;DHT22;1463;51.070;16.998;2022-09-03T06:28:25;14.90;99.90
2907;DHT22;1463;51.070;16.998;2022-09-03T06:30:52;14.90;99.90
2907;DHT22;1463;51.070;16.998;2022-09-03T06:33:20;14.90;99.90
2907;DHT22;1463;51.070;16.998;2022-09-03T06:35:52;15.00;99.90
2907;DHT22;1463;51.070;16.998;2022-09-03T06:38:22;15.10;99.90
2907;DHT22;1463;51.070;16.998;2022-09-03T06:40:50;15.20;99.90
2907;DHT22;1463;51.070;16.998;2022-09-03T06:43:17;15.20;99.90
2907;DHT22;1463;51.070;16.998;2022-09-03T06:45:51;15.40;99.90
2907;DHT22;1463;51.070;16.998;2022-09-03T06:48:18;15.50;99.90
2907;DHT22;1463;51.070;16.998;2022-09-03T06:50:53;15.50;99.90
2907;DHT22;1463;51.070;16.998;2022-09-03T06:53:21;15.40;99.90
2907;DHT22;1463;51.070;16.998;2022-09-03T06:55:51;15.40;99.90
2907;DHT22;1463;51.070;16.998;2022-09-03T06:58:18;15.40;99.90
2907;DHT22;1463;51.070;16.998;2022-09-03T07:00:46;15.50;99.90
2907;DHT22;1463;51.070;16.998;2022-09-03T07:03:14;15.60;99.90
2907;DHT22;1463;51.070;16.998;2022-09-03T07:05:42;15.70;99.90
2907;DHT22;1463;51.070;16.998;2022-09-03T07:08:10;15.80;99.90
2907;DHT22;1463;51.070;16.998;2022-09-03T07:10:37;16.00;99.90
2907;DHT22;1463;51.070;16.998;2022-09-03T07:13:05;16.10;99.90
2907;DHT22;1463;51.070;16.998;2022-09-03T07:15:32;16.10;99.90
2907;DHT22;1463;51.070;16.998;2022-09-03T07:17:59;16.10;99.90
2907;DHT22;1463;51.070;16.998;2022-09-03T07:20:26;16.00;99.90
2907;DHT22;1463;51.070;16.998;2022-09-03T07:22:54;16.10;99.90
2907;DHT22;1463;51.070;16.998;2022-09-03T07:25:23;16.10;99.90
2907;DHT22;1463;51.070;16.998;2022-09-03T07:27:50;16.30;99.90
2907;DHT22;1463;51.070;16.998;2022-09-03T07:30:17;16.40;99.90
2907;DHT22;1463;51.070;16.998;2022-09-03T07:32:45;16.50;99.90
2907;DHT22;1463;51.070;16.998;2022-09-03T07:35:12;16.70;99.90
2907;DHT22;1463;51.070;16.998;2022-09-03T07:37:40;16.80;99.90
2907;DHT22;1463;51.070;16.998;2022-09-03T07:40:08;17.00;99.90
2907;DHT22;1463;51.070;16.998;2022-09-03T07:42:37;17.20;99.90
2907;DHT22;1463;51.070;16.998;2022-09-03T07:45:05;17.30;99.90
2907;DHT22;1463;51.070;16.998;2022-09-03T07:47:34;17.40;99.90
2907;DHT22;1463;51.070;16.998;2022-09-03T07:50:02;17.50;99.90
2907;DHT22;1463;51.070;16.998;2022-09-03T07:52:29;17.60;99.90
2907;DHT22;1463;51.070;16.998;2022-09-03T07:54:57;17.80;99.90
2907;DHT22;1463;51.070;16.998;2022-09-03T07:57:27;17.90;99.90
2907;DHT22;1463;51.070;16.998;2022-09-03T07:59:55;18.00;99.90
2907;DHT22;1463;51.070;16.998;2022-09-03T08:02:23;18.20;99.90
2907;DHT22;1463;51.070;16.998;2022-09-03T08:04:50;18.30;99.90
2907;DHT22;1463;51.070;16.998;2022-09-03T08:07:17;18.50;99.90
2907;DHT22;1463;51.070;16.998;2022-09-03T08:09:44;18.60;99.90
2907;DHT22;1463;51.070;16.998;2022-09-03T08:12:11;18.60;99.90
2907;DHT22;1463;51.070;16.998;2022-09-03T08:14:38;18.70;99.90
2907;DHT22;1463;51.070;16.998;2022-09-03T08:17:07;18.90;99.90
2907;DHT22;1463;51.070;16.998;2022-09-03T08:19:34;19.10;99.90
2907;DHT22;1463;51.070;16.998;2022-09-03T08:22:01;19.50;99.90
2907;DHT22;1463;51.070;16.998;2022-09-03T08:24:28;20.00;99.90
2907;DHT22;1463;51.070;16.998;2022-09-03T08:26:55;20.50;99.70
2907;DHT22;1463;51.070;16.998;2022-09-03T08:29:23;21.00;97.10
2907;DHT22;1463;51.070;16.998;2022-09-03T08:31:51;21.60;95.40
2907;DHT22;1463;51.070;16.998;2022-09-03T08:34:20;22.80;92.10
2907;DHT22;1463;51.070;16.998;2022-09-03T08:36:48;24.50;83.10
2907;DHT22;1463;51.070;16.998;2022-09-03T08:39:17;25.70;78.00
2907;DHT22;1463;51.070;16.998;2022-09-03T08:41:52;26.90;72.50
2907;DHT22;1463;51.070;16.998;2022-09-03T08:44:23;28.30;68.20
2907;DHT22;1463;51.070;16.998;2022-09-03T08:46:54;29.20;62.40
2907;DHT22;1463;51.070;16.998;2022-09-03T08:49:25;30.40;60.50
2907;DHT22;1463;51.070;16.998;2022-09-03T08:51:54;30.80;57.60
2907;DHT22;1463;51.070;16.998;2022-09-03T08:54:23;30.60;56.30
2907;DHT22;1463;51.070;16.998;2022-09-03T08:56:51;30.60;56.00
2907;DHT22;1463;51.070;16.998;2022-09-03T08:59:19;30.70;55.30
2907;DHT22;1463;51.070;16.998;2022-09-03T09:01:50;29.90;55.40
2907;DHT22;1463;51.070;16.998;2022-09-03T09:04:21;29.50;56.30
2907;DHT22;1463;51.070;16.998;2022-09-03T09:06:52;28.70;56.70
2907;DHT22;1463;51.070;16.998;2022-09-03T09:09:23;27.70;57.70
2907;DHT22;1463;51.070;16.998;2022-09-03T09:11:57;26.80;59.60
2907;DHT22;1463;51.070;16.998;2022-09-03T09:14:29;26.50;60.20
2907;DHT22;1463;51.070;16.998;2022-09-03T09:17:00;25.80;61.50
2907;DHT22;1463;51.070;16.998;2022-09-03T09:19:35;25.20;63.00
2907;DHT22;1463;51.070;16.998;2022-09-03T09:22:06;24.60;64.10
2907;DHT22;1463;51.070;16.998;2022-09-03T09:24:36;23.90;65.30
2907;DHT22;1463;51.070;16.998;2022-09-03T09:27:06;23.40;66.60
2907;DHT22;1463;51.070;16.998;2022-09-03T09:29:34;23.40;68.60
2907;DHT22;1463;51.070;16.998;2022-09-03T09:32:02;23.50;68.40
2907;DHT22;1463;51.070;16.998;2022-09-03T09:34:32;23.40;68.60
2907;DHT22;1463;51.070;16.998;2022-09-03T09:37:00;23.20;68.30
2907;DHT22;1463;51.070;16.998;2022-09-03T09:39:30;23.00;69.40
2907;DHT22;1463;51.070;16.998;2022-09-03T09:41:58;22.80;69.70
2907;DHT22;1463;51.070;16.998;2022-09-03T09:44:26;22.80;69.80
2907;DHT22;1463;51.070;16.998;2022-09-03T09:47:00;22.60;70.00
2907;DHT22;1463;51.070;16.998;2022-09-03T09:49:32;22.50;70.70
2907;DHT22;1463;51.070;16.998;2022-09-03T09:52:00;22.60;72.20
2907;DHT22;1463;51.070;16.998;2022-09-03T09:54:28;22.50;72.10
2907;DHT22;1463;51.070;16.998;2022-09-03T09:57:00;22.50;72.60
2907;DHT22;1463;51.070;16.998;2022-09-03T09:59:28;22.60;72.30
2907;DHT22;1463;51.070;16.998;2022-09-03T10:02:03;22.70;72.50
2907;DHT22;1463;51.070;16.998;2022-09-03T10:04:33;22.80;72.80
2907;DHT22;1463;51.070;16.998;2022-09-03T10:07:02;22.70;72.10
2907;DHT22;1463;51.070;16.998;2022-09-03T10:09:30;22.50;71.50
2907;DHT22;1463;51.070;16.998;2022-09-03T10:12:03;22.50;70.60
2907;DHT22;1463;51.070;16.998;2022-09-03T10:14:33;22.40;69.90
2907;DHT22;1463;51.070;16.998;2022-09-03T10:17:04;22.30;70.20
2907;DHT22;1463;51.070;16.998;2022-09-03T10:19:38;22.40;70.20
2907;DHT22;1463;51.070;16.998;2022-09-03T10:22:08;22.40;69.70
2907;DHT22;1463;51.070;16.998;2022-09-03T10:24:39;22.50;68.90
2907;DHT22;1463;51.070;16.998;2022-09-03T10:27:09;22.40;69.10
2907;DHT22;1463;51.070;16.998;2022-09-03T10:29:37;22.40;69.70
2907;DHT22;1463;51.070;16.998;2022-09-03T10:32:09;22.30;69.70
2907;DHT22;1463;51.070;16.998;2022-09-03T10:34:45;22.40;69.70
2907;DHT22;1463;51.070;16.998;2022-09-03T10:37:17;22.50;70.20
2907;DHT22;1463;51.070;16.998;2022-09-03T10:39:53;22.50;70.30
2907;DHT22;1463;51.070;16.998;2022-09-03T10:42:29;22.50;70.40
2907;DHT22;1463;51.070;16.998;2022-09-03T10:45:01;22.70;70.40
2907;DHT22;1463;51.070;16.998;2022-09-03T10:47:38;22.70;69.30
2907;DHT22;1463;51.070;16.998;2022-09-03T10:50:09;22.70;69.70
2907;DHT22;1463;51.070;16.998;2022-09-03T10:52:43;22.90;69.70
2907;DHT22;1463;51.070;16.998;2022-09-03T10:55:17;22.80;69.80
2907;DHT22;1463;51.070;16.998;2022-09-03T10:57:50;22.80;70.90
2907;DHT22;1463;51.070;16.998;2022-09-03T11:00:18;23.00;70.30
2907;DHT22;1463;51.070;16.998;2022-09-03T11:05:38;23.10;69.40
2907;DHT22;1463;51.070;16.998;2022-09-03T11:08:09;22.80;69.00
2907;DHT22;1463;51.070;16.998;2022-09-03T11:10:39;22.70;70.30
2907;DHT22;1463;51.070;16.998;2022-09-03T11:13:10;22.40;69.40
2907;DHT22;1463;51.070;16.998;2022-09-03T11:15:39;22.40;69.30
2907;DHT22;1463;51.070;16.998;2022-09-03T11:18:11;22.30;69.20
2907;DHT22;1463;51.070;16.998;2022-09-03T11:20:40;22.40;70.50
2907;DHT22;1463;51.070;16.998;2022-09-03T11:23:08;22.40;70.00
2907;DHT22;1463;51.070;16.998;2022-09-03T11:25:40;22.30;70.20
2907;DHT22;1463;51.070;16.998;2022-09-03T11:28:11;22.10;71.20
2907;DHT22;1463;51.070;16.998;2022-09-03T11:30:47;22.30;71.40
2907;DHT22;1463;51.070;16.998;2022-09-03T11:33:16;22.40;71.00
2907;DHT22;1463;51.070;16.998;2022-09-03T11:35:45;22.70;71.40
2907;DHT22;1463;51.070;16.998;2022-09-03T11:38:18;22.80;69.40
2907;DHT22;1463;51.070;16.998;2022-09-03T11:40:56;22.60;70.50
2907;DHT22;1463;51.070;16.998;2022-09-03T11:43:27;22.40;70.70
2907;DHT22;1463;51.070;16.998;2022-09-03T11:46:01;22.30;71.40
2907;DHT22;1463;51.070;16.998;2022-09-03T11:48:32;22.40;70.20
2907;DHT22;1463;51.070;16.998;2022-09-03T11:51:00;22.60;70.30
2907;DHT22;1463;51.070;16.998;2022-09-03T11:53:32;22.70;69.40
2907;DHT22;1463;51.070;16.998;2022-09-03T11:56:00;22.50;69.20
2907;DHT22;1463;51.070;16.998;2022-09-03T11:58:40;22.40;68.50
2907;DHT22;1463;51.070;16.998;2022-09-03T12:01:09;22.20;69.40
2907;DHT22;1463;51.070;16.998;2022-09-03T12:03:38;21.90;70.20
2907;DHT22;1463;51.070;16.998;2022-09-03T12:06:14;21.90;71.80
2907;DHT22;1463;51.070;16.998;2022-09-03T12:08:59;21.80;70.90
2907;DHT22;1463;51.070;16.998;2022-09-03T12:11:33;22.00;72.30
2907;DHT22;1463;51.070;16.998;2022-09-03T12:14:07;22.10;73.90
2907;DHT22;1463;51.070;16.998;2022-09-03T12:16:43;22.10;74.40
2907;DHT22;1463;51.070;16.998;2022-09-03T12:19:17;22.10;74.30
2907;DHT22;1463;51.070;16.998;2022-09-03T12:21:47;22.10;74.10
2907;DHT22;1463;51.070;16.998;2022-09-03T12:24:14;22.20;74.30
2907;DHT22;1463;51.070;16.998;2022-09-03T12:26:42;22.00;75.10
2907;DHT22;1463;51.070;16.998;2022-09-03T12:29:21;21.90;75.90
2907;DHT22;1463;51.070;16.998;2022-09-03T12:31:49;21.60;75.10
2907;DHT22;1463;51.070;16.998;2022-09-03T12:34:17;21.50;76.80
2907;DHT22;1463;51.070;16.998;2022-09-03T12:36:44;21.40;77.20
2907;DHT22;1463;51.070;16.998;2022-09-03T12:39:13;21.40;77.80
2907;DHT22;1463;51.070;16.998;2022-09-03T12:41:50;21.30;77.90
2907;DHT22;1463;51.070;16.998;2022-09-03T12:44:24;21.40;78.60
2907;DHT22;1463;51.070;16.998;2022-09-03T12:47:01;21.40;78.90
2907;DHT22;1463;51.070;16.998;2022-09-03T12:49:33;21.50;79.10
2907;DHT22;1463;51.070;16.998;2022-09-03T12:52:00;21.70;78.10
2907;DHT22;1463;51.070;16.998;2022-09-03T12:54:28;21.90;77.40
2907;DHT22;1463;51.070;16.998;2022-09-03T12:56:55;21.80;75.20
2907;DHT22;1463;51.070;16.998;2022-09-03T12:59:26;21.70;75.50
2907;DHT22;1463;51.070;16.998;2022-09-03T13:01:55;21.60;76.10
2907;DHT22;1463;51.070;16.998;2022-09-03T13:04:24;21.50;76.40
2907;DHT22;1463;51.070;16.998;2022-09-03T13:06:54;21.50;77.20
2907;DHT22;1463;51.070;16.998;2022-09-03T13:09:23;21.40;76.80
2907;DHT22;1463;51.070;16.998;2022-09-03T13:11:54;21.40;77.60
2907;DHT22;1463;51.070;16.998;2022-09-03T13:14:23;21.30;77.20
2907;DHT22;1463;51.070;16.998;2022-09-03T13:17:11;21.20;77.10
2907;DHT22;1463;51.070;16.998;2022-09-03T13:19:46;21.20;77.70
2907;DHT22;1463;51.070;16.998;2022-09-03T13:22:18;21.30;78.40
2907;DHT22;1463;51.070;16.998;2022-09-03T13:24:56;21.30;78.10
2907;DHT22;1463;51.070;16.998;2022-09-03T13:27:28;21.30;78.90
2907;DHT22;1463;51.070;16.998;2022-09-03T13:30:03;21.30;79.10
2907;DHT22;1463;51.070;16.998;2022-09-03T13:32:35;21.30;78.40
2907;DHT22;1463;51.070;16.998;2022-09-03T13:35:05;21.20;78.90
2907;DHT22;1463;51.070;16.998;2022-09-03T13:37:36;21.20;78.20
2907;DHT22;1463;51.070;16.998;2022-09-03T13:40:08;21.20;78.40
2907;DHT22;1463;51.070;16.998;2022-09-03T13:42:41;21.40;77.70
2907;DHT22;1463;51.070;16.998;2022-09-03T13:45:12;21.70;77.60
2907;DHT22;1463;51.070;16.998;2022-09-03T13:47:45;21.90;77.40
2907;DHT22;1463;51.070;16.998;2022-09-03T13:50:30;22.20;77.40
2907;DHT22;1463;51.070;16.998;2022-09-03T13:52:59;22.20;77.20
2907;DHT22;1463;51.070;16.998;2022-09-03T13:55:32;22.10;76.40
2907;DHT22;1463;51.070;16.998;2022-09-03T13:58:03;21.90;77.00
2907;DHT22;1463;51.070;16.998;2022-09-03T14:00:32;21.70;77.50
2907;DHT22;1463;51.070;16.998;2022-09-03T14:03:05;21.60;78.10
2907;DHT22;1463;51.070;16.998;2022-09-03T14:05:37;21.50;78.20
2907;DHT22;1463;51.070;16.998;2022-09-03T14:08:10;21.50;78.50
2907;DHT22;1463;51.070;16.998;2022-09-03T14:10:44;21.50;79.10
2907;DHT22;1463;51.070;16.998;2022-09-03T14:13:20;21.50;79.20
2907;DHT22;1463;51.070;16.998;2022-09-03T14:15:51;21.60;78.50
2907;DHT22;1463;51.070;16.998;2022-09-03T14:18:27;21.80;78.00
2907;DHT22;1463;51.070;16.998;2022-09-03T14:20:58;21.90;77.50
2907;DHT22;1463;51.070;16.998;2022-09-03T14:23:30;22.00;76.50
2907;DHT22;1463;51.070;16.998;2022-09-03T14:25:59;22.10;76.30
2907;DHT22;1463;51.070;16.998;2022-09-03T14:28:29;22.20;76.40
2907;DHT22;1463;51.070;16.998;2022-09-03T14:31:00;22.20;76.40
2907;DHT22;1463;51.070;16.998;2022-09-03T14:33:31;22.20;76.70
2907;DHT22;1463;51.070;16.998;2022-09-03T14:36:08;21.90;75.60
2907;DHT22;1463;51.070;16.998;2022-09-03T14:38:51;21.80;76.30
2907;DHT22;1463;51.070;16.998;2022-09-03T14:44:08;21.80;77.80
2907;DHT22;1463;51.070;16.998;2022-09-03T14:46:42;21.80;78.00
2907;DHT22;1463;51.070;16.998;2022-09-03T14:49:22;21.80;78.50
2907;DHT22;1463;51.070;16.998;2022-09-03T14:51:59;21.70;79.00
2907;DHT22;1463;51.070;16.998;2022-09-03T14:54:37;21.70;79.90
2907;DHT22;1463;51.070;16.998;2022-09-03T14:57:11;21.60;81.00
2907;DHT22;1463;51.070;16.998;2022-09-03T14:59:47;21.60;81.00
2907;DHT22;1463;51.070;16.998;2022-09-03T15:02:30;21.50;81.30
2907;DHT22;1463;51.070;16.998;2022-09-03T15:05:10;21.30;81.50
2907;DHT22;1463;51.070;16.998;2022-09-03T15:07:44;21.30;82.50
2907;DHT22;1463;51.070;16.998;2022-09-03T15:10:15;21.20;83.20
2907;DHT22;1463;51.070;16.998;2022-09-03T15:12:45;21.10;83.40
2907;DHT22;1463;51.070;16.998;2022-09-03T15:15:16;21.10;83.20
2907;DHT22;1463;51.070;16.998;2022-09-03T15:17:46;21.10;83.20
2907;DHT22;1463;51.070;16.998;2022-09-03T15:20:23;21.10;83.40
2907;DHT22;1463;51.070;16.998;2022-09-03T15:25:45;21.00;82.30
2907;DHT22;1463;51.070;16.998;2022-09-03T15:28:18;21.00;84.30
2907;DHT22;1463;51.070;16.998;2022-09-03T15:30:51;21.00;84.90
2907;DHT22;1463;51.070;16.998;2022-09-03T15:33:22;21.00;85.40
2907;DHT22;1463;51.070;16.998;2022-09-03T15:35:55;21.00;85.00
2907;DHT22;1463;51.070;16.998;2022-09-03T15:38:27;21.00;85.60
2907;DHT22;1463;51.070;16.998;2022-09-03T15:40:59;21.00;86.10
2907;DHT22;1463;51.070;16.998;2022-09-03T15:43:28;21.00;87.30
2907;DHT22;1463;51.070;16.998;2022-09-03T15:45:56;21.00;88.60
2907;DHT22;1463;51.070;16.998;2022-09-03T15:48:27;21.00;89.20
2907;DHT22;1463;51.070;16.998;2022-09-03T15:51:05;21.00;90.30
2907;DHT22;1463;51.070;16.998;2022-09-03T15:53:35;20.90;90.80
2907;DHT22;1463;51.070;16.998;2022-09-03T15:56:09;20.90;91.10
2907;DHT22;1463;51.070;16.998;2022-09-03T15:58:38;20.80;90.80
2907;DHT22;1463;51.070;16.998;2022-09-03T16:01:14;20.80;91.00
2907;DHT22;1463;51.070;16.998;2022-09-03T16:03:47;20.80;91.00
2907;DHT22;1463;51.070;16.998;2022-09-03T16:06:27;20.80;91.20
2907;DHT22;1463;51.070;16.998;2022-09-03T16:09:04;20.70;91.40
2907;DHT22;1463;51.070;16.998;2022-09-03T16:11:37;20.70;91.80
2907;DHT22;1463;51.070;16.998;2022-09-03T16:14:07;20.70;91.90
2907;DHT22;1463;51.070;16.998;2022-09-03T16:16:48;20.60;92.10